createdAt,value
2017-10-22T00:00:56.259Z,26.05
2017-10-22T00:03:30.736Z,24.05
2017-10-22T00:06:05.207Z,25.30
2017-10-22T00:08:39.752Z,23.40
2017-10-22T00:11:14.201Z,22.08
2017-10-22T00:13:48.658Z,23.12
2017-10-22T00:16:23.107Z,23.48
2017-10-22T00:18:57.655Z,23.83
2017-10-22T00:21:32.139Z,22.70
2017-10-22T00:24:06.651Z,20.42
2017-10-22T00:26:41.117Z,23.12
2017-10-22T00:29:15.434Z,22.10
2017-10-22T00:31:49.863Z,21.85
2017-10-22T00:34:24.494Z,20.50
2017-10-22T00:36:59.641Z,25.77
2017-10-22T00:39:33.978Z,21.80
2017-10-22T00:42:08.424Z,22.95
2017-10-22T00:44:42.792Z,22.15
2017-10-22T00:47:17.289Z,23.42
2017-10-22T00:49:51.689Z,22.65
2017-10-22T00:52:26.020Z,21.40
2017-10-22T00:55:00.430Z,20.33
2017-10-22T00:57:34.768Z,21.70
2017-10-22T01:00:09.192Z,21.58
2017-10-22T01:02:43.627Z,21.58
2017-10-22T01:05:17.962Z,19.15
2017-10-22T01:07:52.419Z,20.77
2017-10-22T01:10:27.041Z,21.60
2017-10-22T01:13:01.543Z,21.17
2017-10-22T01:15:35.893Z,19.00
2017-10-22T01:18:10.370Z,21.73
2017-10-22T01:20:44.741Z,19.40
2017-10-22T01:23:19.225Z,18.90
2017-10-22T01:25:53.749Z,18.52
2017-10-22T01:28:28.187Z,19.15
2017-10-22T01:31:02.699Z,16.75
2017-10-22T01:33:37.931Z,20.15
2017-10-22T01:36:12.332Z,17.92
2017-10-22T01:38:46.856Z,18.58
2017-10-22T01:41:21.234Z,17.35
2017-10-22T01:43:55.726Z,17.90
2017-10-22T01:46:30.111Z,18.05
2017-10-22T01:49:04.588Z,19.45
2017-10-22T01:51:39.168Z,18.00
2017-10-22T01:54:13.637Z,16.85
2017-10-22T01:56:48.127Z,18.42
2017-10-22T01:59:22.620Z,18.83
2017-10-22T02:01:57.932Z,18.73
2017-10-22T02:04:32.399Z,18.48
2017-10-22T02:07:06.893Z,17.30
2017-10-22T02:09:41.368Z,19.10
2017-10-22T02:12:15.733Z,17.67
2017-10-22T02:14:50.091Z,19.00
2017-10-22T02:17:24.443Z,18.15
2017-10-22T02:19:59.525Z,18.05
2017-10-22T02:22:34.030Z,17.70
2017-10-22T02:25:08.508Z,16.12
2017-10-22T02:27:43.013Z,16.37
2017-10-22T02:30:17.530Z,17.23
2017-10-22T02:32:51.970Z,17.30
2017-10-22T02:35:26.524Z,17.83
2017-10-22T02:38:01.109Z,17.27
2017-10-22T02:40:35.491Z,16.85
2017-10-22T02:43:10.051Z,16.75
2017-10-22T02:45:44.458Z,16.80
2017-10-22T02:48:18.831Z,18.10
2017-10-22T02:50:53.326Z,17.15
2017-10-22T02:53:27.855Z,17.42
2017-10-22T02:56:02.344Z,15.15
2017-10-22T02:58:36.836Z,17.33
2017-10-22T03:01:11.259Z,18.00
2017-10-22T03:03:45.776Z,14.95
2017-10-22T03:06:20.269Z,15.55
2017-10-22T03:08:54.652Z,14.43
2017-10-22T03:11:29.890Z,16.55
2017-10-22T03:14:04.275Z,15.25
2017-10-22T03:16:38.775Z,14.50
2017-10-22T03:19:13.249Z,14.25
2017-10-22T03:21:47.717Z,15.35
2017-10-22T03:24:22.166Z,15.57
2017-10-22T03:26:56.915Z,16.00
2017-10-22T03:29:31.499Z,15.02
2017-10-22T03:32:06.563Z,14.52
2017-10-22T03:34:41.088Z,14.43
2017-10-22T03:37:16.337Z,14.77
2017-10-22T03:39:51.598Z,14.93
2017-10-22T03:42:26.099Z,12.95
2017-10-22T03:45:00.680Z,14.80
2017-10-22T03:47:35.182Z,14.30
2017-10-22T03:50:09.768Z,12.30
2017-10-22T03:52:45.360Z,12.57
2017-10-22T03:55:19.892Z,12.45
2017-10-22T03:57:54.313Z,10.88
2017-10-22T04:00:28.654Z,12.43
2017-10-22T04:03:03.248Z,12.70
2017-10-22T04:05:37.790Z,12.48
2017-10-22T04:08:12.147Z,13.20
2017-10-22T04:10:47.253Z,12.95
2017-10-22T04:13:21.785Z,13.62
2017-10-22T04:15:56.128Z,12.70
2017-10-22T04:18:30.591Z,10.85
2017-10-22T04:21:05.064Z,11.73
2017-10-22T04:23:39.666Z,12.00
2017-10-22T04:26:16.912Z,11.07
2017-10-22T04:28:51.289Z,11.88
2017-10-22T04:31:25.776Z,11.05
2017-10-22T04:34:01.100Z,12.23
2017-10-22T04:36:36.293Z,10.52
2017-10-22T04:39:10.651Z,12.40
2017-10-22T04:41:45.003Z,9.50
2017-10-22T04:44:20.342Z,9.43
2017-10-22T04:46:54.781Z,8.60
2017-10-22T04:49:29.144Z,9.95
2017-10-22T04:52:03.644Z,9.88
2017-10-22T04:54:38.195Z,8.93
2017-10-22T04:57:12.663Z,8.85
2017-10-22T04:59:47.142Z,9.27
2017-10-22T05:02:21.593Z,9.85
2017-10-22T05:04:56.170Z,8.73
2017-10-22T05:07:30.745Z,8.57
2017-10-22T05:10:05.283Z,9.05
2017-10-22T05:12:39.882Z,7.32
2017-10-22T05:15:14.211Z,9.18
2017-10-22T05:17:48.628Z,7.60
2017-10-22T05:20:22.954Z,6.90
2017-10-22T05:22:57.400Z,7.03
2017-10-22T05:25:32.366Z,6.90
2017-10-22T05:28:06.843Z,6.82
2017-10-22T05:30:41.310Z,6.85
2017-10-22T05:33:16.755Z,7.45
2017-10-22T05:35:51.232Z,7.85
2017-10-22T05:38:25.702Z,6.05
2017-10-22T05:41:00.133Z,6.43
2017-10-22T05:43:34.664Z,5.97
2017-10-22T05:46:09.045Z,8.25
2017-10-22T05:48:43.616Z,7.60
2017-10-22T05:51:18.086Z,6.20
2017-10-22T05:53:52.431Z,5.85
2017-10-22T05:56:27.072Z,6.00
2017-10-22T05:59:01.581Z,6.30
2017-10-22T06:01:36.076Z,5.72
2017-10-22T06:04:10.521Z,6.50
2017-10-22T06:06:45.024Z,6.65
2017-10-22T06:09:19.340Z,5.62
2017-10-22T06:11:53.825Z,5.15
2017-10-22T06:14:28.870Z,4.95
2017-10-22T06:17:03.362Z,5.55
2017-10-22T06:19:38.575Z,5.18
2017-10-22T06:22:12.963Z,5.87
2017-10-22T06:24:47.571Z,5.30
2017-10-22T06:27:22.011Z,6.05
2017-10-22T06:29:56.622Z,5.80
2017-10-22T06:32:30.969Z,5.85
2017-10-22T06:35:05.481Z,4.85
2017-10-22T06:37:39.926Z,3.97
2017-10-22T06:40:14.408Z,5.32
2017-10-22T06:42:48.870Z,5.43
2017-10-22T06:45:23.358Z,4.57
2017-10-22T06:47:57.797Z,4.90
2017-10-22T06:50:32.246Z,4.07
2017-10-22T06:53:06.645Z,5.40
2017-10-22T06:55:41.025Z,4.75
2017-10-22T06:58:15.424Z,3.97
2017-10-22T07:00:49.925Z,4.32
2017-10-22T07:03:24.336Z,3.95
2017-10-22T07:05:58.851Z,4.22
2017-10-22T07:08:33.268Z,3.67
2017-10-22T07:11:07.826Z,4.78
2017-10-22T07:13:42.245Z,3.95
2017-10-22T07:16:16.619Z,3.62
2017-10-22T07:18:51.025Z,4.30
2017-10-22T07:21:25.543Z,3.62
2017-10-22T07:23:59.902Z,3.75
2017-10-22T07:26:35.084Z,4.03
2017-10-22T07:29:09.653Z,4.12
2017-10-22T07:31:44.107Z,3.30
2017-10-22T07:34:18.990Z,4.70
2017-10-22T07:36:54.255Z,3.60
2017-10-22T07:39:29.716Z,3.65
2017-10-22T07:42:04.051Z,5.35
2017-10-22T07:44:38.683Z,4.18
2017-10-22T07:47:13.749Z,4.40
2017-10-22T07:49:48.181Z,3.28
2017-10-22T07:52:22.564Z,3.58
2017-10-22T07:54:57.170Z,4.45
2017-10-22T07:57:31.498Z,3.70
2017-10-22T08:00:06.017Z,2.95
2017-10-22T08:02:41.798Z,3.40
2017-10-22T08:05:16.243Z,4.75
2017-10-22T08:07:50.746Z,3.70
2017-10-22T08:10:25.191Z,4.05
2017-10-22T08:12:59.634Z,4.12
2017-10-22T08:15:34.199Z,4.15
2017-10-22T08:18:08.712Z,4.57
2017-10-22T08:20:43.234Z,3.53
2017-10-22T08:23:17.761Z,4.82
2017-10-22T08:25:52.221Z,4.30
2017-10-22T08:28:26.703Z,4.00
2017-10-22T08:31:01.938Z,3.45
2017-10-22T08:33:36.446Z,4.20
2017-10-22T08:36:12.468Z,3.90
2017-10-22T08:38:46.891Z,4.25
2017-10-22T08:41:21.471Z,3.53
2017-10-22T08:43:55.877Z,3.40
2017-10-22T08:46:30.357Z,4.00
2017-10-22T08:49:04.840Z,3.53
2017-10-22T08:51:39.256Z,4.22
2017-10-22T08:54:14.640Z,3.28
2017-10-22T08:56:49.804Z,3.35
2017-10-22T08:59:24.332Z,3.22
2017-10-22T09:01:58.821Z,2.85
2017-10-22T09:04:33.131Z,2.75
2017-10-22T09:07:07.636Z,2.85
2017-10-22T09:09:42.060Z,3.20
2017-10-22T09:12:16.531Z,2.03
2017-10-22T09:14:51.660Z,3.40
2017-10-22T09:17:25.952Z,3.17
2017-10-22T09:20:00.357Z,2.58
2017-10-22T09:22:34.966Z,3.78
2017-10-22T09:25:09.492Z,3.25
2017-10-22T09:27:43.986Z,3.50
2017-10-22T09:30:18.419Z,2.90
2017-10-22T09:32:53.665Z,3.50
2017-10-22T09:35:28.754Z,3.33
2017-10-22T09:38:03.257Z,4.43
2017-10-22T09:40:37.813Z,3.60
2017-10-22T09:43:12.392Z,3.10
2017-10-22T09:45:47.624Z,3.65
2017-10-22T09:48:22.158Z,2.42
2017-10-22T09:50:58.555Z,4.07
2017-10-22T09:53:33.371Z,3.70
2017-10-22T09:56:09.275Z,3.50
2017-10-22T09:58:45.867Z,2.90
2017-10-22T10:01:20.219Z,2.92
2017-10-22T10:03:54.785Z,4.00
2017-10-22T10:06:29.834Z,3.20
2017-10-22T10:09:04.147Z,3.75
2017-10-22T10:11:39.727Z,4.07
2017-10-22T10:14:14.993Z,3.83
2017-10-22T10:16:49.489Z,3.80
2017-10-22T10:19:24.656Z,3.33
2017-10-22T10:21:59.044Z,3.78
2017-10-22T10:24:33.444Z,3.35
2017-10-22T10:27:07.877Z,3.90
2017-10-22T10:29:42.247Z,3.80
2017-10-22T10:32:16.637Z,3.80
2017-10-22T10:34:51.181Z,3.55
2017-10-22T10:37:25.694Z,3.92
2017-10-22T10:40:00.208Z,4.05
2017-10-22T10:42:34.689Z,3.70
2017-10-22T10:45:09.116Z,4.80
2017-10-22T10:47:44.384Z,4.20
2017-10-22T10:50:18.769Z,2.90
2017-10-22T10:52:53.956Z,3.15
2017-10-22T10:55:28.282Z,4.00
2017-10-22T10:58:02.700Z,3.97
2017-10-22T11:00:37.217Z,3.60
2017-10-22T11:03:11.657Z,3.72
2017-10-22T11:05:46.140Z,3.75
2017-10-22T11:08:20.653Z,3.53
2017-10-22T11:10:55.154Z,3.65
2017-10-22T11:13:29.628Z,3.47
2017-10-22T11:16:04.104Z,3.10
2017-10-22T11:18:38.556Z,3.60
2017-10-22T11:21:13.083Z,2.97
2017-10-22T11:23:48.349Z,2.20
2017-10-22T11:26:22.820Z,3.83
2017-10-22T11:28:57.210Z,3.60
2017-10-22T11:31:31.542Z,3.37
2017-10-22T11:34:06.133Z,2.95
2017-10-22T11:36:40.667Z,3.25
2017-10-22T11:39:15.202Z,3.12
2017-10-22T11:41:49.532Z,3.85
2017-10-22T11:44:24.077Z,3.67
2017-10-22T11:46:59.392Z,4.30
2017-10-22T11:49:33.810Z,5.25
2017-10-22T11:52:08.981Z,3.87
2017-10-22T11:54:43.469Z,3.62
2017-10-22T11:57:17.912Z,3.58
2017-10-22T11:59:52.407Z,4.57
2017-10-22T12:02:26.860Z,3.78
2017-10-22T12:05:02.082Z,3.78
2017-10-22T12:07:36.752Z,3.20
2017-10-22T12:10:11.235Z,2.70
2017-10-22T12:12:45.666Z,3.67
2017-10-22T12:15:20.026Z,2.75
2017-10-22T12:17:54.501Z,3.42
2017-10-22T12:20:28.965Z,3.22
2017-10-22T12:23:03.470Z,2.42
2017-10-22T12:25:37.764Z,3.40
2017-10-22T12:28:12.113Z,2.80
2017-10-22T12:30:46.597Z,2.05
2017-10-22T12:33:21.059Z,2.90
2017-10-22T12:35:55.605Z,2.15
2017-10-22T12:38:30.154Z,2.17
2017-10-22T12:41:05.313Z,2.67
2017-10-22T12:43:39.764Z,2.75
2017-10-22T12:46:14.338Z,1.83
2017-10-22T12:48:48.820Z,2.25
2017-10-22T12:51:23.209Z,2.05
2017-10-22T12:53:58.430Z,2.22
2017-10-22T12:56:32.919Z,2.50
2017-10-22T12:59:07.500Z,2.97
2017-10-22T13:01:42.001Z,2.15
2017-10-22T13:04:16.646Z,1.90
2017-10-22T13:06:51.979Z,1.90
2017-10-22T13:09:26.274Z,2.15
2017-10-22T13:12:00.832Z,1.70
2017-10-22T13:14:35.287Z,2.03
2017-10-22T13:17:10.436Z,1.67
2017-10-22T13:19:45.580Z,1.25
2017-10-22T13:22:20.209Z,1.80
2017-10-22T13:24:54.684Z,1.80
2017-10-22T13:27:29.283Z,1.30
2017-10-22T13:30:03.788Z,2.00
2017-10-22T13:32:49.764Z,2.12
2017-10-22T13:35:24.195Z,2.15
2017-10-22T13:37:58.659Z,2.40
2017-10-22T13:40:33.699Z,2.20
2017-10-22T13:43:08.282Z,2.55
2017-10-22T13:45:42.693Z,2.00
2017-10-22T13:48:17.160Z,1.70
2017-10-22T13:50:51.801Z,2.50
2017-10-22T13:53:26.527Z,1.70
2017-10-22T13:56:01.787Z,1.60
2017-10-22T13:58:36.285Z,1.30
2017-10-22T14:01:10.686Z,1.40
2017-10-22T14:03:45.086Z,1.87
2017-10-22T14:06:19.530Z,1.30
2017-10-22T14:08:54.092Z,1.60
2017-10-22T14:11:28.605Z,1.52
2017-10-22T14:14:03.113Z,1.45
2017-10-22T14:16:37.548Z,1.67
2017-10-22T14:19:12.100Z,1.85
2017-10-22T14:21:46.587Z,1.75
2017-10-22T14:24:20.953Z,10.63
2017-10-22T14:26:55.491Z,4.75
2017-10-22T14:29:29.810Z,3.30
2017-10-22T14:32:04.288Z,2.90
2017-10-22T14:34:38.669Z,6.85
2017-10-22T14:37:13.129Z,6.05
2017-10-22T14:39:47.634Z,5.95
2017-10-22T14:42:22.205Z,4.45
2017-10-22T14:44:56.825Z,4.03
2017-10-22T14:47:31.324Z,4.40
2017-10-22T14:50:05.738Z,3.30
2017-10-22T14:52:40.318Z,3.17
2017-10-22T14:55:14.844Z,3.03
2017-10-22T14:57:49.266Z,3.40
2017-10-22T15:00:23.779Z,3.55
2017-10-22T15:02:58.352Z,4.25
2017-10-22T15:05:32.772Z,5.45
2017-10-22T15:08:07.167Z,4.07
2017-10-22T15:10:41.657Z,3.83
2017-10-22T15:13:16.092Z,5.60
2017-10-22T15:15:50.604Z,4.20
2017-10-22T15:18:25.133Z,3.90
2017-10-22T15:20:59.704Z,3.67
2017-10-22T15:23:34.170Z,3.58
2017-10-22T15:26:08.717Z,3.12
2017-10-22T15:28:43.036Z,4.05
2017-10-22T15:31:17.366Z,3.47
2017-10-22T15:33:51.774Z,7.20
2017-10-22T15:36:26.246Z,7.47
2017-10-22T15:39:01.200Z,6.40
2017-10-22T15:41:35.654Z,6.68
2017-10-22T15:44:10.093Z,4.90
2017-10-22T15:46:44.612Z,5.03
2017-10-22T15:49:19.068Z,5.65
2017-10-22T15:51:53.616Z,5.30
2017-10-22T15:54:28.111Z,5.22
2017-10-22T15:57:02.714Z,5.45
2017-10-22T15:59:37.162Z,5.35
2017-10-22T16:02:11.615Z,6.40
2017-10-22T16:04:45.976Z,5.72
2017-10-22T16:07:20.444Z,4.93
2017-10-22T16:09:54.878Z,6.10
2017-10-22T16:12:29.244Z,5.43
2017-10-22T16:15:03.718Z,5.90
2017-10-22T16:17:40.918Z,5.72
2017-10-22T16:20:15.356Z,5.93
2017-10-22T16:22:49.786Z,8.43
2017-10-22T16:25:24.310Z,12.95
2017-10-22T16:27:58.963Z,13.68
2017-10-22T16:30:34.244Z,9.00
2017-10-22T16:33:08.800Z,11.12
2017-10-22T16:35:43.470Z,8.45
2017-10-22T16:38:17.981Z,8.70
2017-10-22T16:40:52.583Z,9.00
2017-10-22T16:43:26.983Z,9.50
2017-10-22T16:46:01.633Z,8.88
2017-10-22T16:48:36.040Z,8.65
2017-10-22T16:51:10.684Z,11.52
2017-10-22T16:53:45.374Z,10.48
2017-10-22T16:56:19.968Z,10.55
2017-10-22T16:58:54.393Z,11.32
2017-10-22T17:01:28.883Z,12.85
2017-10-22T17:04:03.542Z,12.20
2017-10-22T17:06:38.114Z,12.00
2017-10-22T17:09:13.795Z,11.80
2017-10-22T17:11:48.458Z,13.05
2017-10-22T17:14:23.421Z,11.55
2017-10-22T17:16:58.123Z,12.27
2017-10-22T17:19:33.008Z,12.02
2017-10-22T17:22:07.658Z,12.70
2017-10-22T17:24:43.185Z,11.35
2017-10-22T17:27:17.988Z,11.02
2017-10-22T17:29:52.914Z,14.13
2017-10-22T17:32:27.792Z,10.98
2017-10-22T17:35:02.944Z,11.40
2017-10-22T17:37:38.424Z,13.23
2017-10-22T17:40:13.334Z,11.70
2017-10-22T17:42:48.798Z,12.75
2017-10-22T17:45:23.692Z,14.15
2017-10-22T17:47:58.454Z,13.57
2017-10-22T17:50:33.333Z,14.32
2017-10-22T17:53:08.277Z,13.13
2017-10-22T17:55:43.030Z,12.30
2017-10-22T17:58:18.007Z,13.50
2017-10-22T18:00:53.677Z,11.90
2017-10-22T18:03:29.433Z,12.85
2017-10-22T18:06:04.744Z,12.60
2017-10-22T18:08:39.820Z,14.57
2017-10-22T18:11:14.585Z,9.00
2017-10-22T18:13:49.499Z,9.63
2017-10-22T18:16:24.385Z,7.82
2017-10-22T18:18:59.257Z,9.35
2017-10-22T18:21:34.005Z,7.10
2017-10-22T18:24:08.691Z,6.15
2017-10-22T18:26:44.286Z,6.15
2017-10-22T18:29:19.255Z,6.90
2017-10-22T18:31:54.910Z,6.97
2017-10-22T18:34:29.881Z,7.32
2017-10-22T18:37:05.443Z,6.37
2017-10-22T18:39:41.255Z,7.93
2017-10-22T18:42:16.910Z,9.27
2017-10-22T18:44:51.945Z,7.80
2017-10-22T18:47:26.713Z,9.32
2017-10-22T18:50:01.652Z,10.82
2017-10-22T18:52:36.319Z,10.82
2017-10-22T18:55:11.347Z,10.50
2017-10-22T18:57:46.232Z,11.27
2017-10-22T19:00:21.994Z,12.57
2017-10-22T19:02:56.879Z,10.50
2017-10-22T19:05:32.013Z,11.00
2017-10-22T19:08:07.763Z,9.93
2017-10-22T19:10:42.950Z,10.45
2017-10-22T19:13:17.946Z,8.70
2017-10-22T19:15:52.869Z,7.12
2017-10-22T19:18:27.818Z,9.00
2017-10-22T19:21:03.491Z,8.82
2017-10-22T19:23:38.281Z,8.15
2017-10-22T19:26:13.181Z,7.15
2017-10-22T19:28:47.866Z,8.45
2017-10-22T19:31:22.770Z,8.13
2017-10-22T19:33:58.300Z,7.30
2017-10-22T19:36:34.172Z,7.78
2017-10-22T19:39:08.988Z,8.88
2017-10-22T19:41:43.973Z,7.55
2017-10-22T19:44:18.959Z,9.38
2017-10-22T19:46:53.873Z,7.45
2017-10-22T19:49:28.584Z,6.25
2017-10-22T19:52:03.999Z,6.82
2017-10-22T19:54:38.761Z,7.62
2017-10-22T19:57:13.709Z,7.22
2017-10-22T19:59:48.841Z,7.28
2017-10-22T20:02:23.725Z,6.78
2017-10-22T20:04:58.617Z,6.00
2017-10-22T20:07:33.523Z,6.78
2017-10-22T20:10:08.425Z,7.10
2017-10-22T20:12:43.128Z,7.35
2017-10-22T20:15:18.084Z,6.78
2017-10-22T20:17:52.823Z,6.20
2017-10-22T20:20:27.638Z,6.40
2017-10-22T20:23:02.274Z,7.05
2017-10-22T20:25:37.085Z,7.25
2017-10-22T20:28:11.844Z,6.78
2017-10-22T20:30:46.751Z,7.10
2017-10-22T20:33:21.668Z,8.27
2017-10-22T20:35:56.458Z,7.75
2017-10-22T20:38:31.265Z,6.20
2017-10-22T20:41:05.936Z,10.60
2017-10-22T20:43:40.519Z,10.15
2017-10-22T20:46:14.991Z,7.93
2017-10-22T20:48:49.582Z,8.60
2017-10-22T20:51:23.915Z,9.60
2017-10-22T20:53:58.471Z,6.43
2017-10-22T20:56:32.810Z,8.27
2017-10-22T20:59:07.189Z,7.25
2017-10-22T21:01:41.848Z,7.15
2017-10-22T21:04:16.317Z,7.22
2017-10-22T21:06:50.809Z,7.55
2017-10-22T21:09:25.271Z,6.97
2017-10-22T21:12:00.513Z,5.65
2017-10-22T21:14:34.864Z,5.78
2017-10-22T21:17:09.448Z,6.45
2017-10-22T21:19:43.939Z,7.00
2017-10-22T21:22:18.273Z,7.70
2017-10-22T21:24:52.756Z,6.40
2017-10-22T21:27:28.015Z,7.37
2017-10-22T21:30:02.516Z,7.12
2017-10-22T21:32:36.889Z,7.70
2017-10-22T21:35:11.382Z,7.70
2017-10-22T21:37:46.621Z,7.47
2017-10-22T21:40:21.156Z,6.55
2017-10-22T21:42:56.379Z,5.70
2017-10-22T21:45:30.707Z,6.82
2017-10-22T21:48:05.047Z,6.80
2017-10-22T21:50:39.537Z,7.50
2017-10-22T21:53:14.099Z,6.68
2017-10-22T21:55:48.465Z,7.18
2017-10-22T21:58:22.910Z,8.07
2017-10-22T22:00:58.191Z,6.40
2017-10-22T22:03:32.669Z,7.12
2017-10-22T22:06:07.136Z,8.40
2017-10-22T22:08:41.532Z,6.57
2017-10-22T22:11:16.028Z,7.60
2017-10-22T22:13:50.499Z,6.62
2017-10-22T22:16:24.937Z,7.90
2017-10-22T22:18:59.413Z,5.90
2017-10-22T22:21:33.850Z,5.78
2017-10-22T22:24:08.333Z,8.18
2017-10-22T22:26:43.332Z,7.07
2017-10-22T22:29:17.705Z,7.43
2017-10-22T22:31:52.786Z,7.68
2017-10-22T22:34:27.256Z,7.60
2017-10-22T22:37:01.754Z,8.10
2017-10-22T22:39:36.339Z,7.78
2017-10-22T22:42:10.876Z,9.18
2017-10-22T22:44:45.952Z,8.73
2017-10-22T22:47:20.490Z,8.32
2017-10-22T22:49:55.078Z,7.75
2017-10-22T22:52:29.548Z,7.00
2017-10-22T22:55:04.026Z,6.93
2017-10-22T22:57:39.159Z,6.80
2017-10-22T23:00:13.624Z,7.12
2017-10-22T23:02:48.117Z,8.60
2017-10-22T23:05:22.687Z,6.65
2017-10-22T23:07:57.211Z,5.05
2017-10-22T23:10:31.699Z,6.82
2017-10-22T23:13:06.122Z,8.35
2017-10-22T23:15:40.435Z,7.10
2017-10-22T23:18:14.883Z,7.32
2017-10-22T23:20:49.272Z,7.50
2017-10-22T23:23:23.730Z,8.95
2017-10-22T23:25:58.162Z,7.43
2017-10-22T23:28:32.651Z,7.90
2017-10-22T23:31:07.285Z,7.85
2017-10-22T23:33:41.638Z,10.60
2017-10-22T23:36:16.052Z,8.30
2017-10-22T23:38:50.442Z,8.25
2017-10-22T23:41:24.803Z,8.25
2017-10-22T23:43:59.300Z,8.52
2017-10-22T23:46:33.720Z,8.30
2017-10-22T23:49:08.189Z,8.10
2017-10-22T23:51:42.673Z,8.85
2017-10-22T23:54:17.202Z,8.98
2017-10-22T23:56:51.599Z,8.35
2017-10-22T23:59:25.986Z,9.32
